Botsford, CT (06404)

2:11 PM EDT on July 07, 2015 (GMT -0400)
Botsford CT | | Change Station
CLOSE
Current Station
Personal Weather Station
Location: Sandy Hook, CT
Elevation: 597 ft
Nearby Weather Stations

Elev 597 ft 41.38 °N, 73.26 °W | Updated 1 minute ago

Overcast
Overcast
83.1 °F
Feels Like 88 °F
N
0.7
Wind Variable Wind from SW
Gusts 2.2 mph

Today
High -- | Low -- °F
--% Chance of Precip.
Yesterday
High -- | Low -- °F
Precip. -- in
5:26 AM 8:28 PM
Waning Gibbous, 62% visible
Pressure 30.03 in
Visibility 8.0 miles
Clouds Mostly Cloudy 1800 ft
Overcast 5000 ft
Heat Index 88 °F
Dew Point 72 °F
Humidity 69%
Rainfall 0.07 in
Snow Depth Not available.
UV 4 out of 12
Pollen 2.90 out of 12
Air Quality Not available.
Flu Activity Not available.
METAR KOXC 071750Z 16005KT 8SM BKN018 OVC050 26/21 A3003

More Conditions Fewer Conditions

Pressure 30.03 in
Visibility 8.0 miles
Clouds Mostly Cloudy 1800 ft
Overcast 5000 ft
Heat Index 88 °F
Dew Point 72 °F
Humidity 69%
Rainfall 0.07 in
Snow Depth Not available.
UV 4 out of 12
Pollen 2.90 out of 12
Air Quality Not available.
Flu Activity Not available.
METAR KOXC 071750Z 16005KT 8SM BKN018 OVC050 26/21 A3003

More Conditions Fewer Conditions

10-Day Weather Forecast

×

Almanac

Astronomy

Jul. 07, 2015 Rise Set
Actual Time
Civil Twilight
Nautical Twilight
Astronomical Twilight
Moon
Length of Visible Light
Length of Day
Tomorrow will be .
, % of the Moon is Illuminated

Today's Extremes

State Highs State Lows

Community

WunderPhotos

Upload Photos

1,835,862 photos uploaded!

WunderBlogs® & News

Nearby

Air Quality

  Air Quality AQ Index Pollutant
Not available.

Snow Depth

Station Depth Elevation

Earthquake Activity

City Distance Mag. Time & Date
Minimum magnitude displayed is 2.5.

Coastal Water Temperatures

Place Temperature

Stations

Nearby Weather Stations

Station Location Temp. Windchill Dew Point Humidity Wind Precip. Elev Updated Type